LTAR

Sivas Airport

Sivas, Turkey
TAF LTAR 182240Z 1900/1909 12018G30KT 6000 SCT005 BKN033 BKN080 TEMPO 1900/1902 1500 -SN BCFG BECMG 1902/1905 2000 -SN BCFG SCT005 BKN025 OVC080 TEMPO 1905/1908 0800 SN FZFG BKN003 BKN025 OVC080
Issued Valid From Valid To
Dec-18 @ 22:40 UTC
(an hour ago)
Dec-19 @ 00:00 UTC
(9 minutes ago)
Dec-19 @ 09:00 UTC
(in 9 hours)
Dec-19 @ 00:00 to Dec-19 @ 02:00
TAF LTAR 182240Z 1900/1909 12018G30KT 6000 SCT005 BKN033 BKN080
Wind Visibility Clouds
120° at 18 knots
 Gusting to 30 knots
6,003 meters
  • Scattered at 500' AGL
  • Broken at 3,300' AGL
  • Broken at 8,000' AGL
Temporary Dec-19 @ 00:00 to Dec-19 @ 02:00
TEMPO 1900/1902 1500 -SN BCFG
Visibility Conditions
1,497 meters
  • Light Snow
  • Patches of
  • Fog
Becoming Dec-19 @ 02:00 to Dec-19 @ 09:00
BECMG 1902/1905 2000 -SN BCFG SCT005 BKN025 OVC080
Wind Visibility Clouds Conditions
120° at 18 knots
 Gusting to 30 knots
1,996 meters
  • Scattered at 500' AGL
  • Broken at 2,500' AGL
  • Overcast at 8,000' AGL
  • Light Snow
  • Patches of
  • Fog
Temporary Dec-19 @ 05:00 to Dec-19 @ 08:00
TEMPO 1905/1908 0800 SN FZFG BKN003 BKN025 OVC080
Visibility Clouds Conditions
805 meters
  • Broken at 300' AGL
  • Broken at 2,500' AGL
  • Overcast at 8,000' AGL
  • Snow
  • Freezing
  • Fog
TAF LTAR 182240Z 1900/1909 12018G30KT 6000 SCT005 BKN033 BKN080 TEMPO 1900/1902 1500 -SN BCFG BECMG 1902/1905 2000 -SN BCFG SCT005 BKN025 OVC080 TEMPO 1905/1908 0800 SN FZFG BKN003 BKN025 OVC080
Issued Dec-18 @ 22:40 UTC
(an hour ago)
Valid From Dec-19 @ 00:00 UTC
(9 minutes ago)
Valid To Dec-19 @ 09:00 UTC
(in 9 hours)
Dec-19 @ 00:00 - Dec-19 @ 02:00
Wind Visibility
120° at 18 knots
 Gusting to 30 knots
6,003 meters
Clouds
  • Scattered at 500' AGL
  • Broken at 3,300' AGL
  • Broken at 8,000' AGL
Temporary Dec-19 @ 00:00 - Dec-19 @ 02:00
Conditions
  • Light Snow
  • Patches of
  • Fog
Becoming Dec-19 @ 02:00 - Dec-19 @ 09:00
Wind Visibility
120° at 18 knots
 Gusting to 30 knots
1,996 meters
Clouds
  • Scattered at 500' AGL
  • Broken at 2,500' AGL
  • Overcast at 8,000' AGL
Conditions
  • Light Snow
  • Patches of
  • Fog
Temporary Dec-19 @ 05:00 - Dec-19 @ 08:00
Clouds
  • Broken at 300' AGL
  • Broken at 2,500' AGL
  • Overcast at 8,000' AGL
Conditions
  • Snow
  • Freezing
  • Fog